createdAt,value
2017-11-13T00:01:44.340Z,12.53
2017-11-13T00:04:11.855Z,13.43
2017-11-13T00:06:39.437Z,12.77
2017-11-13T00:09:06.949Z,13.10
2017-11-13T00:11:34.475Z,13.20
2017-11-13T00:14:02.027Z,14.40
2017-11-13T00:16:29.532Z,12.90
2017-11-13T00:19:07.486Z,13.37
2017-11-13T00:21:36.888Z,13.60
2017-11-13T00:24:04.461Z,12.47
2017-11-13T00:26:31.979Z,13.13
2017-11-13T00:28:59.523Z,12.43
2017-11-13T00:31:27.847Z,13.25
2017-11-13T00:33:55.383Z,12.77
2017-11-13T00:36:22.928Z,12.63
2017-11-13T00:38:51.383Z,13.00
2017-11-13T00:41:20.724Z,13.27
2017-11-13T00:43:48.632Z,12.00
2017-11-13T00:46:16.179Z,13.33
2017-11-13T00:48:43.720Z,13.27
2017-11-13T00:51:11.636Z,13.23
2017-11-13T00:53:41.100Z,12.93
2017-11-13T00:56:08.639Z,11.93
2017-11-13T00:58:36.172Z,12.10
2017-11-13T01:01:04.512Z,12.37
2017-11-13T01:03:32.056Z,12.93
2017-11-13T01:05:59.571Z,12.03
2017-11-13T01:08:27.919Z,11.30
2017-11-13T01:10:55.456Z,12.17
2017-11-13T01:13:22.995Z,11.80
2017-11-13T01:15:50.576Z,11.73
2017-11-13T01:18:18.152Z,11.97
2017-11-13T01:20:46.059Z,11.20
2017-11-13T01:23:14.363Z,11.80
2017-11-13T01:25:41.872Z,11.23
2017-11-13T01:28:09.408Z,11.97
2017-11-13T01:30:36.965Z,11.73
2017-11-13T01:33:04.511Z,11.53
2017-11-13T01:35:32.789Z,11.90
2017-11-13T01:38:01.125Z,12.30
2017-11-13T01:40:29.435Z,11.60
2017-11-13T01:42:56.952Z,12.02
2017-11-13T01:45:24.504Z,11.63
2017-11-13T01:47:52.018Z,11.00
2017-11-13T01:50:19.556Z,11.93
2017-11-13T01:52:47.110Z,11.23
2017-11-13T01:55:15.035Z,11.63
2017-11-13T01:57:42.583Z,11.55
2017-11-13T02:00:10.148Z,12.40
2017-11-13T02:02:37.694Z,10.30
2017-11-13T02:05:06.034Z,10.90
2017-11-13T02:07:33.663Z,11.68
2017-11-13T02:10:01.215Z,11.00
2017-11-13T02:12:29.148Z,12.07
2017-11-13T02:14:57.156Z,10.68
2017-11-13T02:17:24.714Z,11.45
2017-11-13T02:19:52.346Z,10.53
2017-11-13T02:22:25.333Z,10.60
2017-11-13T02:24:56.682Z,11.00
2017-11-13T02:27:25.099Z,10.70
2017-11-13T02:29:52.620Z,11.00
2017-11-13T02:32:20.184Z,10.00
2017-11-13T02:34:48.880Z,10.03
2017-11-13T02:37:16.439Z,11.75
2017-11-13T02:39:43.984Z,9.80
2017-11-13T02:42:12.685Z,11.75
2017-11-13T02:44:40.260Z,11.00
2017-11-13T02:47:07.794Z,10.02
2017-11-13T02:49:35.764Z,10.52
2017-11-13T02:52:03.340Z,10.60
2017-11-13T02:54:31.279Z,10.43
2017-11-13T02:56:58.864Z,9.68
2017-11-13T02:59:26.423Z,11.17
2017-11-13T03:01:53.941Z,10.38
2017-11-13T03:04:22.257Z,9.80
2017-11-13T03:06:49.788Z,9.75
2017-11-13T03:09:18.070Z,10.20
2017-11-13T03:11:45.650Z,9.33
2017-11-13T03:14:14.691Z,9.45
2017-11-13T03:16:42.236Z,10.65
2017-11-13T03:19:09.788Z,9.55
2017-11-13T03:21:37.310Z,10.23
2017-11-13T03:24:04.853Z,9.85
2017-11-13T03:26:32.495Z,10.23
2017-11-13T03:29:00.040Z,10.07
2017-11-13T03:31:27.800Z,8.80
2017-11-13T03:33:56.499Z,9.80
2017-11-13T03:36:24.036Z,8.80
2017-11-13T03:38:51.548Z,9.90
2017-11-13T03:41:20.600Z,9.50
2017-11-13T03:43:48.488Z,9.93
2017-11-13T03:46:17.168Z,10.45
2017-11-13T03:48:44.707Z,9.25
2017-11-13T03:51:12.241Z,10.30
2017-11-13T03:53:41.119Z,8.50
2017-11-13T03:56:08.664Z,8.70
2017-11-13T03:58:36.956Z,8.23
2017-11-13T04:01:04.504Z,9.20
2017-11-13T04:03:32.515Z,9.75
2017-11-13T04:06:00.027Z,9.50
2017-11-13T04:08:28.331Z,9.02
2017-11-13T04:10:56.998Z,9.40
2017-11-13T04:13:24.511Z,9.00
2017-11-13T04:15:52.404Z,9.32
2017-11-13T04:18:21.121Z,8.80
2017-11-13T04:20:48.644Z,8.50
2017-11-13T04:23:16.675Z,8.98
2017-11-13T04:25:44.235Z,10.00
2017-11-13T04:28:11.756Z,7.80
2017-11-13T04:30:40.401Z,8.82
2017-11-13T04:33:07.947Z,8.23
2017-11-13T04:35:35.459Z,9.65
2017-11-13T04:38:03.421Z,9.23
2017-11-13T04:40:32.310Z,8.93
2017-11-13T04:43:00.620Z,8.10
2017-11-13T04:45:28.557Z,8.77
2017-11-13T04:47:56.877Z,9.13
2017-11-13T04:50:25.155Z,8.10
2017-11-13T04:52:52.675Z,8.90
2017-11-13T04:55:21.003Z,8.13
2017-11-13T04:57:48.535Z,7.70
2017-11-13T05:00:16.819Z,8.93
2017-11-13T05:02:44.395Z,8.40
2017-11-13T05:05:11.956Z,8.27
2017-11-13T05:07:39.491Z,8.47
2017-11-13T05:10:08.672Z,8.20
2017-11-13T05:12:36.963Z,8.70
2017-11-13T05:15:05.236Z,8.13
2017-11-13T05:17:32.837Z,7.90
2017-11-13T05:20:00.759Z,8.27
2017-11-13T05:22:33.260Z,9.00
2017-11-13T05:25:01.620Z,8.20
2017-11-13T05:27:29.555Z,7.87
2017-11-13T05:29:57.946Z,8.13
2017-11-13T05:32:25.467Z,7.68
2017-11-13T05:34:53.378Z,7.90
2017-11-13T05:37:21.325Z,7.72
2017-11-13T05:42:47.235Z,8.05
2017-11-13T05:45:14.796Z,7.95
2017-11-13T05:47:43.693Z,7.80
2017-11-13T05:50:11.251Z,7.90
2017-11-13T05:52:39.155Z,7.55
2017-11-13T05:55:06.660Z,7.40
2017-11-13T05:57:34.636Z,7.60
2017-11-13T06:00:02.177Z,7.30
2017-11-13T06:02:30.168Z,8.00
2017-11-13T06:04:58.835Z,7.28
2017-11-13T06:07:27.129Z,8.17
2017-11-13T06:09:55.051Z,7.23
2017-11-13T06:12:24.111Z,8.03
2017-11-13T06:14:51.669Z,7.25
2017-11-13T06:17:20.016Z,6.85
2017-11-13T06:19:47.548Z,7.60
2017-11-13T06:22:16.433Z,7.43
2017-11-13T06:24:44.721Z,7.20
2017-11-13T06:27:12.667Z,7.70
2017-11-13T06:29:40.191Z,9.27
2017-11-13T06:32:07.742Z,9.80
2017-11-13T06:34:35.335Z,9.13
2017-11-13T06:37:02.861Z,8.50
2017-11-13T06:39:30.439Z,10.00
2017-11-13T06:41:58.763Z,8.60
2017-11-13T06:44:26.660Z,9.43
2017-11-13T06:46:54.188Z,10.27
2017-11-13T06:49:22.156Z,11.73
2017-11-13T06:51:51.907Z,10.60
2017-11-13T06:54:20.079Z,10.57
2017-11-13T06:56:47.611Z,12.20
2017-11-13T06:59:15.519Z,11.40
2017-11-13T07:01:43.068Z,11.93
2017-11-13T07:04:10.629Z,11.43
2017-11-13T07:06:38.567Z,12.70
2017-11-13T07:09:06.484Z,11.97
2017-11-13T07:11:34.030Z,11.77
2017-11-13T07:14:02.418Z,10.10
2017-11-13T07:16:29.964Z,11.20
2017-11-13T07:18:58.534Z,10.50
2017-11-13T07:21:26.524Z,10.95
2017-11-13T07:23:54.067Z,8.85
2017-11-13T07:26:21.651Z,9.60
2017-11-13T07:28:49.238Z,7.60
2017-11-13T07:31:16.759Z,9.02
2017-11-13T07:33:44.704Z,7.20
2017-11-13T07:36:12.239Z,7.20
2017-11-13T07:38:39.765Z,8.20
2017-11-13T07:41:07.348Z,9.53
2017-11-13T07:43:35.266Z,8.05
2017-11-13T07:46:02.800Z,7.07
2017-11-13T07:48:31.508Z,7.77
2017-11-13T07:50:59.027Z,6.72
2017-11-13T07:53:28.040Z,6.70
2017-11-13T07:55:56.377Z,8.65
2017-11-13T07:58:24.733Z,8.00
2017-11-13T08:00:52.244Z,6.43
2017-11-13T08:03:19.815Z,6.78
2017-11-13T08:05:48.469Z,7.27
2017-11-13T08:08:16.076Z,7.60
2017-11-13T08:10:44.424Z,5.63
2017-11-13T08:13:12.331Z,5.83
2017-11-13T08:15:41.235Z,5.60
2017-11-13T08:18:08.811Z,7.15
2017-11-13T08:20:36.357Z,6.43
2017-11-13T08:23:04.375Z,5.67
2017-11-13T08:25:31.951Z,5.33
2017-11-13T08:28:00.260Z,5.80
2017-11-13T08:30:28.191Z,6.00
2017-11-13T08:32:56.164Z,6.32
2017-11-13T08:35:24.100Z,5.82
2017-11-13T08:37:52.751Z,6.47
2017-11-13T08:40:20.322Z,5.37
2017-11-13T08:42:47.840Z,5.28
2017-11-13T08:45:16.135Z,4.93
2017-11-13T08:47:44.137Z,6.27
2017-11-13T08:50:12.984Z,4.97
2017-11-13T08:52:40.883Z,4.87
2017-11-13T08:55:09.591Z,4.95
2017-11-13T08:57:37.097Z,5.00
2017-11-13T09:00:05.392Z,5.03
2017-11-13T09:02:32.963Z,4.37
2017-11-13T09:05:00.871Z,4.45
2017-11-13T09:07:28.397Z,4.93
2017-11-13T09:09:57.104Z,4.03
2017-11-13T09:12:24.612Z,3.78
2017-11-13T09:14:52.535Z,3.00
2017-11-13T09:17:20.091Z,2.90
2017-11-13T09:19:48.371Z,2.60
2017-11-13T09:22:15.901Z,3.10
2017-11-13T09:24:44.607Z,2.25
2017-11-13T09:27:12.140Z,2.40
2017-11-13T09:29:41.248Z,2.35
2017-11-13T09:32:10.306Z,2.00
2017-11-13T09:34:38.231Z,2.10
2017-11-13T09:37:05.771Z,1.75
2017-11-13T09:39:33.711Z,2.03
2017-11-13T09:42:01.663Z,2.90
2017-11-13T09:44:29.983Z,2.20
2017-11-13T09:46:58.711Z,2.67
2017-11-13T09:49:26.231Z,3.60
2017-11-13T09:51:58.905Z,3.58
2017-11-13T09:54:27.644Z,2.10
2017-11-13T09:56:55.956Z,2.78
2017-11-13T09:59:23.517Z,3.17
2017-11-13T10:01:51.083Z,3.00
2017-11-13T10:04:18.670Z,3.40
2017-11-13T10:06:46.232Z,3.50
2017-11-13T10:09:13.735Z,3.05
2017-11-13T10:11:42.031Z,2.90
2017-11-13T10:14:09.574Z,2.80
2017-11-13T10:16:38.635Z,1.60
2017-11-13T10:19:06.183Z,2.03
2017-11-13T10:21:33.740Z,2.05
2017-11-13T10:24:01.285Z,2.15
2017-11-13T10:26:28.804Z,2.10
2017-11-13T10:28:57.768Z,2.47
2017-11-13T10:31:26.447Z,2.53
2017-11-13T10:33:53.968Z,3.37
2017-11-13T10:36:21.520Z,2.80
2017-11-13T10:38:49.439Z,2.20
2017-11-13T10:41:17.042Z,2.40
2017-11-13T10:43:44.909Z,2.20
2017-11-13T10:46:12.447Z,2.37
2017-11-13T10:48:39.973Z,1.33
2017-11-13T10:51:08.319Z,1.52
2017-11-13T10:53:36.609Z,1.92
2017-11-13T10:56:04.151Z,2.45
2017-11-13T10:58:31.713Z,2.00
2017-11-13T11:01:00.040Z,1.77
2017-11-13T11:03:27.632Z,2.10
2017-11-13T11:05:56.328Z,2.50
2017-11-13T11:08:24.612Z,2.10
2017-11-13T11:10:52.128Z,1.80
2017-11-13T11:26:53.916Z,1.95
2017-11-13T11:29:28.352Z,1.75
2017-11-13T11:35:19.767Z,1.60
2017-11-13T11:37:55.768Z,1.60
2017-11-13T11:40:23.299Z,1.60
2017-11-13T11:42:50.843Z,1.85
2017-11-13T11:45:31.996Z,1.77
2017-11-13T12:01:19.164Z,1.55
2017-11-13T12:03:46.680Z,1.85
2017-11-13T12:06:14.188Z,1.85
2017-11-13T12:08:42.507Z,2.00
2017-11-13T12:11:10.780Z,1.65
2017-11-13T12:13:38.288Z,1.70
2017-11-13T12:16:05.851Z,1.80
2017-11-13T12:18:34.163Z,1.83
2017-11-13T12:21:01.681Z,1.77
2017-11-13T12:23:29.251Z,1.90
2017-11-13T12:25:56.787Z,1.77
2017-11-13T12:28:25.180Z,1.83
2017-11-13T12:30:52.733Z,1.95
2017-11-13T12:33:20.632Z,1.87
2017-11-13T12:35:48.163Z,1.80
2017-11-13T12:38:15.732Z,1.55
2017-11-13T12:40:45.700Z,2.50
2017-11-13T12:43:13.236Z,1.70
2017-11-13T12:45:40.808Z,1.70
2017-11-13T12:48:08.347Z,2.60
2017-11-13T12:50:35.867Z,1.85
2017-11-13T12:53:04.168Z,1.65
2017-11-13T12:55:31.671Z,1.87
2017-11-13T12:57:59.179Z,1.92
2017-11-13T13:00:26.735Z,1.98
2017-11-13T13:02:54.292Z,1.43
2017-11-13T13:05:22.288Z,1.73
2017-11-13T13:07:49.851Z,1.70
2017-11-13T13:10:17.364Z,1.87
2017-11-13T13:12:45.270Z,2.73
2017-11-13T13:15:12.864Z,1.50
2017-11-13T13:17:40.406Z,1.50
2017-11-13T13:20:08.711Z,1.55
2017-11-13T13:22:36.258Z,1.50
2017-11-13T13:25:04.192Z,1.43
2017-11-13T13:27:31.728Z,1.80
2017-11-13T13:29:59.280Z,1.87
2017-11-13T13:32:27.597Z,1.62
2017-11-13T13:34:55.536Z,1.50
2017-11-13T13:37:23.055Z,1.50
2017-11-13T13:39:51.344Z,1.63
2017-11-13T13:42:18.852Z,21.03
2017-11-13T13:44:46.359Z,2.72
2017-11-13T13:47:13.927Z,3.25
2017-11-13T13:49:42.227Z,5.40
2017-11-13T13:52:10.640Z,9.57
2017-11-13T13:54:38.179Z,10.67
2017-11-13T13:57:05.700Z,14.13
2017-11-13T13:59:33.244Z,15.32
2017-11-13T14:02:00.815Z,17.43
2017-11-13T14:04:28.810Z,18.60
2017-11-13T14:06:57.091Z,18.37
2017-11-13T14:09:26.428Z,22.37
2017-11-13T14:11:54.155Z,21.00
2017-11-13T14:14:22.468Z,21.47
2017-11-13T14:16:50.044Z,20.87
2017-11-13T14:19:17.591Z,22.58
2017-11-13T14:21:45.129Z,21.77
2017-11-13T14:24:13.103Z,22.48
2017-11-13T14:26:40.655Z,22.13
2017-11-13T14:29:08.195Z,22.35
2017-11-13T14:31:41.274Z,21.42
2017-11-13T14:34:09.633Z,20.20
2017-11-13T14:36:37.224Z,20.25
2017-11-13T14:39:05.559Z,21.42
2017-11-13T14:41:33.108Z,20.37
2017-11-13T14:44:01.089Z,21.25
2017-11-13T14:46:28.646Z,21.10
2017-11-13T14:48:56.164Z,21.20
2017-11-13T14:51:23.756Z,21.67
2017-11-13T14:53:51.305Z,21.12
2017-11-13T14:56:19.239Z,20.65
2017-11-13T14:58:47.559Z,22.03
2017-11-13T15:01:15.091Z,19.77
2017-11-13T15:03:43.025Z,20.37
2017-11-13T15:06:11.028Z,20.15
2017-11-13T15:08:38.552Z,20.27
2017-11-13T15:11:06.857Z,19.40
2017-11-13T15:13:34.407Z,20.17
2017-11-13T15:16:02.315Z,20.02
2017-11-13T15:18:30.239Z,17.73
2017-11-13T15:20:58.938Z,19.48
2017-11-13T15:23:27.279Z,19.10
2017-11-13T15:25:54.827Z,18.65
2017-11-13T15:28:22.775Z,19.00
2017-11-13T15:30:51.068Z,16.53
2017-11-13T15:33:19.409Z,18.87
2017-11-13T15:35:46.981Z,17.48
2017-11-13T15:38:14.519Z,18.67
2017-11-13T15:40:43.211Z,18.77
2017-11-13T15:43:11.557Z,19.00
2017-11-13T15:45:40.244Z,19.63
2017-11-13T15:48:07.819Z,21.53
2017-11-13T15:50:35.804Z,26.00
2017-11-13T15:53:03.366Z,26.83
2017-11-13T15:55:31.316Z,27.83
2017-11-13T15:57:59.694Z,28.62
2017-11-13T16:00:27.668Z,29.55
2017-11-13T16:02:56.016Z,29.50
2017-11-13T16:05:24.376Z,30.70
2017-11-13T16:07:52.688Z,30.10
2017-11-13T16:10:20.233Z,30.40
2017-11-13T16:12:47.829Z,31.12
2017-11-13T16:15:16.141Z,31.62
2017-11-13T16:17:43.692Z,31.95
2017-11-13T16:20:11.682Z,30.45
2017-11-13T16:22:40.008Z,31.05
2017-11-13T16:25:07.965Z,30.70
2017-11-13T16:27:35.926Z,29.47
2017-11-13T16:30:03.869Z,30.15
2017-11-13T16:32:31.399Z,30.37
2017-11-13T16:34:59.380Z,30.73
2017-11-13T16:37:28.060Z,30.50
2017-11-13T16:39:55.604Z,30.52
2017-11-13T16:42:23.948Z,33.35
2017-11-13T16:44:51.479Z,36.20
2017-11-13T16:47:19.038Z,40.55
2017-11-13T16:49:47.040Z,41.05
2017-11-13T16:52:14.981Z,44.67
2017-11-13T16:54:42.518Z,44.08
2017-11-13T16:57:10.516Z,44.23
2017-11-13T16:59:38.477Z,45.53
2017-11-13T17:02:06.036Z,47.03
2017-11-13T17:04:33.604Z,44.80
2017-11-13T17:07:01.903Z,46.63
2017-11-13T17:09:29.865Z,46.65
2017-11-13T17:11:58.959Z,46.15
2017-11-13T17:14:26.502Z,46.20
2017-11-13T17:16:54.043Z,46.63
2017-11-13T17:19:21.641Z,46.05
2017-11-13T17:21:49.950Z,44.60
2017-11-13T17:24:18.267Z,46.70
2017-11-13T17:26:45.937Z,47.45
2017-11-13T17:29:13.481Z,44.03
2017-11-13T17:31:41.823Z,45.97
2017-11-13T17:34:10.150Z,42.38
2017-11-13T17:36:37.692Z,44.30
2017-11-13T17:39:05.236Z,43.47
2017-11-13T17:41:33.255Z,42.65
2017-11-13T17:44:00.904Z,44.60
2017-11-13T17:46:28.456Z,43.42
2017-11-13T17:48:56.011Z,42.30
2017-11-13T17:51:23.543Z,43.80
2017-11-13T17:53:51.858Z,42.20
2017-11-13T17:56:19.835Z,40.50
2017-11-13T17:58:47.405Z,40.50
2017-11-13T18:01:14.967Z,40.22
2017-11-13T18:03:42.549Z,40.78
2017-11-13T18:06:10.094Z,40.12
2017-11-13T18:08:38.412Z,40.12
2017-11-13T18:11:06.000Z,38.40
2017-11-13T18:13:33.956Z,38.53
2017-11-13T18:16:02.263Z,37.65
2017-11-13T18:18:30.228Z,38.78
2017-11-13T18:20:58.908Z,41.47
2017-11-13T18:23:26.448Z,41.95
2017-11-13T18:25:54.031Z,42.83
2017-11-13T18:28:21.589Z,46.42
2017-11-13T18:30:49.157Z,45.53
2017-11-13T18:33:16.731Z,46.92
2017-11-13T18:35:44.655Z,43.60
2017-11-13T18:38:12.203Z,45.42
2017-11-13T18:40:40.563Z,44.50
2017-11-13T18:43:08.116Z,43.67
2017-11-13T18:45:35.669Z,46.40
2017-11-13T18:48:04.025Z,44.75
2017-11-13T18:50:31.575Z,43.33
2017-11-13T18:52:59.134Z,43.47
2017-11-13T18:55:27.106Z,42.53
2017-11-13T18:57:54.648Z,41.55
2017-11-13T19:00:22.188Z,43.63
2017-11-13T19:02:51.323Z,42.67
2017-11-13T19:05:18.859Z,43.20
2017-11-13T19:07:46.799Z,41.95
2017-11-13T19:10:15.126Z,42.65
2017-11-13T19:12:42.643Z,42.13
2017-11-13T19:15:10.954Z,40.67
2017-11-13T19:17:38.541Z,39.17
2017-11-13T19:20:06.087Z,42.28
2017-11-13T19:22:33.620Z,39.00
2017-11-13T19:25:01.203Z,38.50
2017-11-13T19:27:28.727Z,39.95
2017-11-13T19:29:56.654Z,40.97
2017-11-13T19:32:24.235Z,40.17
2017-11-13T19:34:51.779Z,37.58
2017-11-13T19:37:19.321Z,38.40
2017-11-13T19:39:46.876Z,38.35
2017-11-13T19:42:14.403Z,40.63
2017-11-13T19:44:41.959Z,40.00
2017-11-13T19:47:09.539Z,40.20
2017-11-13T19:49:37.459Z,37.83
2017-11-13T19:52:05.000Z,38.03
2017-11-13T19:54:32.582Z,38.00
2017-11-13T19:57:00.107Z,38.57
2017-11-13T19:59:27.643Z,38.08
2017-11-13T20:01:56.578Z,38.57
2017-11-13T20:04:24.493Z,39.60
2017-11-13T20:06:51.999Z,37.35
2017-11-13T20:09:19.550Z,37.22
2017-11-13T20:11:47.827Z,37.37
2017-11-13T20:14:15.344Z,35.55
2017-11-13T20:16:42.913Z,35.65
2017-11-13T20:19:10.851Z,36.33
2017-11-13T20:21:39.171Z,36.05
2017-11-13T20:24:06.719Z,34.28
2017-11-13T20:26:34.628Z,33.90
2017-11-13T20:29:02.588Z,35.00
2017-11-13T20:31:30.984Z,33.47
2017-11-13T20:33:58.572Z,32.17
2017-11-13T20:36:26.855Z,31.67
2017-11-13T20:38:55.228Z,32.60
2017-11-13T20:41:23.192Z,32.58
2017-11-13T20:43:51.117Z,31.25
2017-11-13T20:46:18.668Z,32.67
2017-11-13T20:48:46.608Z,30.70
2017-11-13T20:51:14.608Z,30.40
2017-11-13T20:53:42.220Z,31.48
2017-11-13T20:56:10.572Z,31.33
2017-11-13T20:58:38.149Z,31.70
2017-11-13T21:01:05.756Z,29.37
2017-11-13T21:03:33.308Z,31.20
2017-11-13T21:06:00.881Z,30.27
2017-11-13T21:08:28.439Z,31.37
2017-11-13T21:10:56.401Z,31.23
2017-11-13T21:13:25.208Z,30.58
2017-11-13T21:15:52.908Z,29.00
2017-11-13T21:18:20.462Z,28.60
2017-11-13T21:20:48.008Z,27.48
2017-11-13T21:23:15.579Z,30.10
2017-11-13T21:25:43.119Z,28.12
2017-11-13T21:28:10.674Z,28.70
2017-11-13T21:30:38.256Z,28.43
2017-11-13T21:33:06.199Z,27.00
2017-11-13T21:35:33.743Z,28.25
2017-11-13T21:38:01.326Z,28.30
2017-11-13T21:40:28.893Z,27.15
2017-11-13T21:42:56.439Z,27.52
2017-11-13T21:45:24.787Z,26.87
2017-11-13T21:47:53.110Z,27.05
2017-11-13T21:50:21.577Z,27.37
2017-11-13T21:52:56.316Z,27.30
2017-11-13T21:55:24.251Z,26.37
2017-11-13T21:57:51.809Z,25.62
2017-11-13T22:00:19.801Z,25.07
2017-11-13T22:02:47.386Z,26.15
2017-11-13T22:05:15.028Z,25.20
2017-11-13T22:07:42.610Z,25.20
2017-11-13T22:10:10.161Z,26.47
2017-11-13T22:12:38.110Z,24.05
2017-11-13T22:15:06.113Z,24.77
2017-11-13T22:17:33.678Z,23.50
2017-11-13T22:20:01.633Z,25.88
2017-11-13T22:22:29.668Z,23.73
2017-11-13T22:24:57.248Z,22.90
2017-11-13T22:27:24.786Z,23.90
2017-11-13T22:29:53.114Z,23.27
2017-11-13T22:32:20.646Z,24.03
2017-11-13T22:34:48.189Z,23.23
2017-11-13T22:37:16.155Z,23.00
2017-11-13T22:39:43.712Z,23.05
2017-11-13T22:42:11.703Z,24.40
2017-11-13T22:44:39.701Z,22.75
2017-11-13T22:47:07.278Z,23.15
2017-11-13T22:49:34.787Z,21.93
2017-11-13T22:52:03.863Z,22.40
2017-11-13T22:54:31.374Z,22.63
2017-11-13T22:56:59.287Z,23.23
2017-11-13T22:59:27.261Z,21.63
2017-11-13T23:01:54.820Z,20.25
2017-11-13T23:04:22.371Z,20.08
2017-11-13T23:06:50.728Z,19.98
2017-11-13T23:09:19.030Z,21.00
2017-11-13T23:11:46.567Z,20.88
2017-11-13T23:14:14.898Z,20.50
2017-11-13T23:16:42.430Z,20.07
2017-11-13T23:19:10.343Z,20.67
2017-11-13T23:21:37.927Z,20.37
2017-11-13T23:24:05.487Z,20.35
2017-11-13T23:26:33.009Z,20.20
2017-11-13T23:29:02.092Z,20.05
2017-11-13T23:31:29.624Z,19.47
2017-11-13T23:33:57.927Z,18.80
2017-11-13T23:36:25.907Z,20.50
2017-11-13T23:38:53.419Z,19.25
2017-11-13T23:41:21.722Z,18.80
2017-11-13T23:43:49.287Z,18.90
2017-11-13T23:46:16.823Z,18.50
2017-11-13T23:48:45.116Z,20.48
2017-11-13T23:51:12.695Z,17.70
2017-11-13T23:53:40.220Z,18.90
2017-11-13T23:56:08.540Z,18.90
2017-11-13T23:58:36.092Z,18.30
